sensor_id;sensor_type;location;lat;lon;timestamp;pressure;altitude;pressure_sealevel;temperature;humidity
46015;BME280;36844;51.898;-0.874;2023-02-14T00:00:03;101998.81;;;18.20;
46015;BME280;36844;51.898;-0.874;2023-02-14T00:02:29;102004.53;;;18.18;
46015;BME280;36844;51.898;-0.874;2023-02-14T00:04:54;102006.06;;;18.16;
46015;BME280;36844;51.898;-0.874;2023-02-14T00:07:19;102008.28;;;18.14;
46015;BME280;36844;51.898;-0.874;2023-02-14T00:09:44;102008.69;;;18.12;
46015;BME280;36844;51.898;-0.874;2023-02-14T00:12:10;102005.53;;;18.10;
46015;BME280;36844;51.898;-0.874;2023-02-14T00:14:35;102000.16;;;18.10;
46015;BME280;36844;51.898;-0.874;2023-02-14T00:17:19;102003.13;;;18.05;
46015;BME280;36844;51.898;-0.874;2023-02-14T00:19:44;102007.78;;;18.05;
46015;BME280;36844;51.898;-0.874;2023-02-14T00:22:09;101997.31;;;18.03;
46015;BME280;36844;51.898;-0.874;2023-02-14T00:24:35;102005.00;;;18.01;
46015;BME280;36844;51.898;-0.874;2023-02-14T00:27:00;102005.34;;;18.00;
46015;BME280;36844;51.898;-0.874;2023-02-14T00:29:26;102004.91;;;17.98;
46015;BME280;36844;51.898;-0.874;2023-02-14T00:31:52;102006.84;;;17.97;
46015;BME280;36844;51.898;-0.874;2023-02-14T00:34:18;102002.94;;;17.95;
46015;BME280;36844;51.898;-0.874;2023-02-14T00:36:43;102007.56;;;17.94;
46015;BME280;36844;51.898;-0.874;2023-02-14T00:39:10;101998.28;;;17.92;
46015;BME280;36844;51.898;-0.874;2023-02-14T00:41:35;102003.25;;;17.90;
46015;BME280;36844;51.898;-0.874;2023-02-14T00:44:01;101986.63;;;17.88;
46015;BME280;36844;51.898;-0.874;2023-02-14T00:46:26;101998.19;;;17.88;
46015;BME280;36844;51.898;-0.874;2023-02-14T00:48:52;101994.31;;;17.86;
46015;BME280;36844;51.898;-0.874;2023-02-14T00:51:17;102001.97;;;17.84;
46015;BME280;36844;51.898;-0.874;2023-02-14T00:53:43;101997.69;;;17.83;
46015;BME280;36844;51.898;-0.874;2023-02-14T00:56:10;101989.97;;;17.81;
46015;BME280;36844;51.898;-0.874;2023-02-14T00:58:35;101991.13;;;17.80;
46015;BME280;36844;51.898;-0.874;2023-02-14T01:01:00;101995.66;;;17.76;
46015;BME280;36844;51.898;-0.874;2023-02-14T01:03:25;101984.09;;;17.75;
46015;BME280;36844;51.898;-0.874;2023-02-14T01:05:51;101991.75;;;17.73;
46015;BME280;36844;51.898;-0.874;2023-02-14T01:08:16;101992.88;;;17.72;
46015;BME280;36844;51.898;-0.874;2023-02-14T01:10:42;101987.06;;;17.70;
46015;BME280;36844;51.898;-0.874;2023-02-14T01:13:07;101985.53;;;17.69;
46015;BME280;36844;51.898;-0.874;2023-02-14T01:15:33;101990.47;;;17.67;
46015;BME280;36844;51.898;-0.874;2023-02-14T01:18:02;101992.38;;;17.67;
46015;BME280;36844;51.898;-0.874;2023-02-14T01:20:27;101990.06;;;17.65;
46015;BME280;36844;51.898;-0.874;2023-02-14T01:22:53;101983.09;;;17.64;
46015;BME280;36844;51.898;-0.874;2023-02-14T01:25:18;101985.34;;;17.62;
46015;BME280;36844;51.898;-0.874;2023-02-14T01:27:43;101981.13;;;17.61;
46015;BME280;36844;51.898;-0.874;2023-02-14T01:30:09;101981.44;;;17.60;
46015;BME280;36844;51.898;-0.874;2023-02-14T01:32:34;101981.84;;;17.58;
46015;BME280;36844;51.898;-0.874;2023-02-14T01:35:00;101972.19;;;17.57;
46015;BME280;36844;51.898;-0.874;2023-02-14T01:37:25;101985.19;;;17.55;
46015;BME280;36844;51.898;-0.874;2023-02-14T01:39:51;101984.44;;;17.55;
46015;BME280;36844;51.898;-0.874;2023-02-14T01:42:17;101975.91;;;17.53;
46015;BME280;36844;51.898;-0.874;2023-02-14T01:47:10;101980.13;;;17.50;
46015;BME280;36844;51.898;-0.874;2023-02-14T01:49:43;101979.31;;;17.50;
46015;BME280;36844;51.898;-0.874;2023-02-14T01:54:35;101977.34;;;17.47;
46015;BME280;36844;51.898;-0.874;2023-02-14T01:57:03;101978.47;;;17.46;
46015;BME280;36844;51.898;-0.874;2023-02-14T01:59:32;101971.09;;;17.43;
46015;BME280;36844;51.898;-0.874;2023-02-14T02:01:58;101969.53;;;17.42;
46015;BME280;36844;51.898;-0.874;2023-02-14T02:04:25;101957.97;;;17.41;
46015;BME280;36844;51.898;-0.874;2023-02-14T02:06:53;101966.41;;;17.40;
46015;BME280;36844;51.898;-0.874;2023-02-14T02:09:21;101974.84;;;17.38;
46015;BME280;36844;51.898;-0.874;2023-02-14T02:11:48;101973.28;;;17.37;
46015;BME280;36844;51.898;-0.874;2023-02-14T02:14:14;101979.78;;;17.36;
46015;BME280;36844;51.898;-0.874;2023-02-14T02:32:33;101964.97;;;17.27;
46015;BME280;36844;51.898;-0.874;2023-02-14T02:45:45;101960.22;;;17.20;
46015;BME280;36844;51.898;-0.874;2023-02-14T02:48:23;101961.34;;;17.19;
46015;BME280;36844;51.898;-0.874;2023-02-14T02:50:52;101967.84;;;17.18;
46015;BME280;36844;51.898;-0.874;2023-02-14T02:58:49;101953.53;;;17.14;
46015;BME280;36844;51.898;-0.874;2023-02-14T03:01:20;101957.38;;;17.13;
46015;BME280;36844;51.898;-0.874;2023-02-14T03:03:46;101963.91;;;17.12;
46015;BME280;36844;51.898;-0.874;2023-02-14T03:06:31;101963.09;;;17.12;
46015;BME280;36844;51.898;-0.874;2023-02-14T03:08:56;101964.22;;;17.11;
46015;BME280;36844;51.898;-0.874;2023-02-14T03:11:22;101961.88;;;17.09;
46015;BME280;36844;51.898;-0.874;2023-02-14T03:18:45;101956.06;;;17.07;
46015;BME280;36844;51.898;-0.874;2023-02-14T03:21:23;101961.81;;;17.06;
46015;BME280;36844;51.898;-0.874;2023-02-14T03:23:53;101971.03;;;17.05;
46015;BME280;36844;51.898;-0.874;2023-02-14T03:26:33;101968.66;;;17.03;
46015;BME280;36844;51.898;-0.874;2023-02-14T03:29:07;101966.31;;;17.02;
46015;BME280;36844;51.898;-0.874;2023-02-14T03:34:16;101955.13;;;17.00;
46015;BME280;36844;51.898;-0.874;2023-02-14T03:36:57;101949.75;;;17.00;
46015;BME280;36844;51.898;-0.874;2023-02-14T03:39:24;101947.41;;;16.98;
46015;BME280;36844;51.898;-0.874;2023-02-14T03:41:59;101946.63;;;16.98;
46015;BME280;36844;51.898;-0.874;2023-02-14T03:44:28;101954.25;;;16.96;
46015;BME280;36844;51.898;-0.874;2023-02-14T03:46:59;101936.56;;;16.95;
46015;BME280;36844;51.898;-0.874;2023-02-14T03:49:28;101929.25;;;16.95;
46015;BME280;36844;51.898;-0.874;2023-02-14T03:51:54;101935.03;;;16.94;
46015;BME280;36844;51.898;-0.874;2023-02-14T03:54:20;101938.03;;;16.92;
46015;BME280;36844;51.898;-0.874;2023-02-14T03:56:51;101934.56;;;16.92;
46015;BME280;36844;51.898;-0.874;2023-02-14T03:59:21;101943.78;;;16.91;
46015;BME280;36844;51.898;-0.874;2023-02-14T04:01:49;101944.13;;;16.89;
46015;BME280;36844;51.898;-0.874;2023-02-14T04:04:20;101937.97;;;16.89;
46015;BME280;36844;51.898;-0.874;2023-02-14T04:06:46;101949.84;;;16.88;
46015;BME280;36844;51.898;-0.874;2023-02-14T04:09:11;101937.53;;;16.87;
46015;BME280;36844;51.898;-0.874;2023-02-14T04:11:36;101943.25;;;16.85;
46015;BME280;36844;51.898;-0.874;2023-02-14T04:14:02;101940.56;;;16.85;
46015;BME280;36844;51.898;-0.874;2023-02-14T04:16:28;101945.53;;;16.83;
46015;BME280;36844;51.898;-0.874;2023-02-14T04:18:53;101938.22;;;16.83;
46015;BME280;36844;51.898;-0.874;2023-02-14T04:21:37;101935.13;;;16.82;
46015;BME280;36844;51.898;-0.874;2023-02-14T04:24:02;101935.13;;;16.82;
46015;BME280;36844;51.898;-0.874;2023-02-14T04:26:27;101941.97;;;16.79;
46015;BME280;36844;51.898;-0.874;2023-02-14T04:28:53;101936.16;;;16.77;
46015;BME280;36844;51.898;-0.874;2023-02-14T04:31:18;101928.88;;;16.77;
46015;BME280;36844;51.898;-0.874;2023-02-14T04:33:43;101913.03;;;16.76;
46015;BME280;36844;51.898;-0.874;2023-02-14T04:36:10;101917.66;;;16.75;
46015;BME280;36844;51.898;-0.874;2023-02-14T04:38:35;101929.19;;;16.76;
46015;BME280;36844;51.898;-0.874;2023-02-14T04:41:00;101919.94;;;16.73;
46015;BME280;36844;51.898;-0.874;2023-02-14T04:43:25;101907.25;;;16.74;
46015;BME280;36844;51.898;-0.874;2023-02-14T04:45:51;101919.94;;;16.73;
46015;BME280;36844;51.898;-0.874;2023-02-14T04:48:16;101930.25;;;16.71;
46015;BME280;36844;51.898;-0.874;2023-02-14T04:50:41;101921.41;;;16.71;
46015;BME280;36844;51.898;-0.874;2023-02-14T04:53:06;101931.41;;;16.70;
46015;BME280;36844;51.898;-0.874;2023-02-14T04:55:32;101922.88;;;16.68;
46015;BME280;36844;51.898;-0.874;2023-02-14T04:57:57;101927.50;;;16.68;
46015;BME280;36844;51.898;-0.874;2023-02-14T05:00:22;101930.53;;;16.66;
46015;BME280;36844;51.898;-0.874;2023-02-14T05:02:48;101941.28;;;16.66;
46015;BME280;36844;51.898;-0.874;2023-02-14T05:05:13;101947.00;;;16.65;
46015;BME280;36844;51.898;-0.874;2023-02-14T05:07:38;101947.00;;;16.65;
46015;BME280;36844;51.898;-0.874;2023-02-14T05:10:04;101940.06;;;16.64;
46015;BME280;36844;51.898;-0.874;2023-02-14T05:12:29;101936.94;;;16.62;
46015;BME280;36844;51.898;-0.874;2023-02-14T05:14:54;101936.94;;;16.62;
46015;BME280;36844;51.898;-0.874;2023-02-14T05:17:21;101938.06;;;16.61;
46015;BME280;36844;51.898;-0.874;2023-02-14T05:19:47;101944.56;;;16.60;
46015;BME280;36844;51.898;-0.874;2023-02-14T05:22:12;101951.09;;;16.59;
46015;BME280;36844;51.898;-0.874;2023-02-14T05:24:37;101952.22;;;16.58;
46015;BME280;36844;51.898;-0.874;2023-02-14T05:27:02;101962.19;;;16.57;
46015;BME280;36844;51.898;-0.874;2023-02-14T05:29:28;101959.84;;;16.56;
46015;BME280;36844;51.898;-0.874;2023-02-14T05:31:53;101961.00;;;16.55;
46015;BME280;36844;51.898;-0.874;2023-02-14T05:34:18;101952.94;;;16.55;
46015;BME280;36844;51.898;-0.874;2023-02-14T05:36:43;101949.44;;;16.54;
46015;BME280;36844;51.898;-0.874;2023-02-14T05:39:09;101948.66;;;16.54;
46015;BME280;36844;51.898;-0.874;2023-02-14T05:41:34;101962.47;;;16.52;
46015;BME280;36844;51.898;-0.874;2023-02-14T05:44:00;101958.97;;;16.52;
46015;BME280;36844;51.898;-0.874;2023-02-14T05:46:25;101955.53;;;16.51;
46015;BME280;36844;51.898;-0.874;2023-02-14T05:48:50;101951.59;;;16.49;
46015;BME280;36844;51.898;-0.874;2023-02-14T05:51:15;101946.91;;;16.46;
46015;BME280;36844;51.898;-0.874;2023-02-14T05:53:41;101948.50;;;16.47;
46015;BME280;36844;51.898;-0.874;2023-02-14T05:56:06;101959.56;;;16.45;
46015;BME280;36844;51.898;-0.874;2023-02-14T05:58:31;101966.88;;;16.45;
46015;BME280;36844;51.898;-0.874;2023-02-14T06:00:57;101965.31;;;16.44;
46015;BME280;36844;51.898;-0.874;2023-02-14T06:03:23;101969.91;;;16.43;
46015;BME280;36844;51.898;-0.874;2023-02-14T06:05:48;101967.22;;;16.43;
46015;BME280;36844;51.898;-0.874;2023-02-14T06:08:13;101967.56;;;16.42;
46015;BME280;36844;51.898;-0.874;2023-02-14T06:10:39;101965.66;;;16.42;
46015;BME280;36844;51.898;-0.874;2023-02-14T06:13:04;101966.00;;;16.41;
46015;BME280;36844;51.898;-0.874;2023-02-14T06:15:33;101959.09;;;16.40;
46015;BME280;36844;51.898;-0.874;2023-02-14T06:17:58;101957.81;;;16.37;
46015;BME280;36844;51.898;-0.874;2023-02-14T06:20:24;101966.69;;;16.38;
46015;BME280;36844;51.898;-0.874;2023-02-14T06:22:49;101967.03;;;16.36;
46015;BME280;36844;51.898;-0.874;2023-02-14T06:25:15;101963.59;;;16.36;
46015;BME280;36844;51.898;-0.874;2023-02-14T06:27:40;101957.41;;;16.35;
46015;BME280;36844;51.898;-0.874;2023-02-14T06:30:06;101962.78;;;16.35;
46015;BME280;36844;51.898;-0.874;2023-02-14T06:32:31;101960.41;;;16.34;
46015;BME280;36844;51.898;-0.874;2023-02-14T06:34:56;101961.56;;;16.33;
46015;BME280;36844;51.898;-0.874;2023-02-14T06:37:22;101964.25;;;16.33;
46015;BME280;36844;51.898;-0.874;2023-02-14T06:39:47;101961.91;;;16.31;
46015;BME280;36844;51.898;-0.874;2023-02-14T06:42:12;101963.03;;;16.30;
46015;BME280;36844;51.898;-0.874;2023-02-14T06:44:38;101958.44;;;16.31;
46015;BME280;36844;51.898;-0.874;2023-02-14T06:47:03;101956.06;;;16.29;
46015;BME280;36844;51.898;-0.874;2023-02-14T06:49:28;101952.63;;;16.29;
46015;BME280;36844;51.898;-0.874;2023-02-14T06:51:54;101954.56;;;16.28;
46015;BME280;36844;51.898;-0.874;2023-02-14T06:54:19;101957.25;;;16.28;
46015;BME280;36844;51.898;-0.874;2023-02-14T06:56:44;101960.69;;;16.29;
46015;BME280;36844;51.898;-0.874;2023-02-14T06:59:09;101956.84;;;16.30;
46015;BME280;36844;51.898;-0.874;2023-02-14T07:01:34;101963.03;;;16.30;
46015;BME280;36844;51.898;-0.874;2023-02-14T07:04:00;101961.13;;;16.31;
46015;BME280;36844;51.898;-0.874;2023-02-14T07:06:25;101954.63;;;16.32;
46015;BME280;36844;51.898;-0.874;2023-02-14T07:08:50;101956.19;;;16.33;
46015;BME280;36844;51.898;-0.874;2023-02-14T07:11:17;101964.69;;;16.35;
46015;BME280;36844;51.898;-0.874;2023-02-14T07:13:42;101971.66;;;16.36;
46015;BME280;36844;51.898;-0.874;2023-02-14T07:16:08;101972.84;;;16.38;
46015;BME280;36844;51.898;-0.874;2023-02-14T07:18:33;101982.13;;;16.41;
46015;BME280;36844;51.898;-0.874;2023-02-14T07:20:59;101994.13;;;16.43;
46015;BME280;36844;51.898;-0.874;2023-02-14T07:23:24;101982.66;;;16.46;
46015;BME280;36844;51.898;-0.874;2023-02-14T07:25:49;101992.03;;;16.52;
46015;BME280;36844;51.898;-0.874;2023-02-14T07:28:14;101990.59;;;16.55;
46015;BME280;36844;51.898;-0.874;2023-02-14T07:30:40;101989.88;;;16.58;
46015;BME280;36844;51.898;-0.874;2023-02-14T07:33:05;101986.16;;;16.62;
46015;BME280;36844;51.898;-0.874;2023-02-14T07:35:30;101985.09;;;16.67;
46015;BME280;36844;51.898;-0.874;2023-02-14T07:37:56;101990.25;;;16.72;
46015;BME280;36844;51.898;-0.874;2023-02-14T07:40:21;101988.38;;;16.76;
46015;BME280;36844;51.898;-0.874;2023-02-14T07:42:53;101988.16;;;16.81;
46015;BME280;36844;51.898;-0.874;2023-02-14T07:45:19;101984.06;;;16.87;
46015;BME280;36844;51.898;-0.874;2023-02-14T07:47:44;101985.38;;;16.93;
46015;BME280;36844;51.898;-0.874;2023-02-14T07:50:11;101986.25;;;16.97;
46015;BME280;36844;51.898;-0.874;2023-02-14T07:52:36;101980.22;;;17.04;
46015;BME280;36844;51.898;-0.874;2023-02-14T07:55:01;101976.50;;;17.08;
46015;BME280;36844;51.898;-0.874;2023-02-14T07:57:26;101985.84;;;17.14;
46015;BME280;36844;51.898;-0.874;2023-02-14T07:59:52;101987.47;;;17.19;
46015;BME280;36844;51.898;-0.874;2023-02-14T08:02:17;101987.63;;;17.26;
46015;BME280;36844;51.898;-0.874;2023-02-14T08:04:44;101981.53;;;17.29;
46015;BME280;36844;51.898;-0.874;2023-02-14T08:07:09;101992.84;;;17.34;
46015;BME280;36844;51.898;-0.874;2023-02-14T08:09:35;101992.59;;;17.39;
46015;BME280;36844;51.898;-0.874;2023-02-14T08:12:00;101987.84;;;17.36;
46015;BME280;36844;51.898;-0.874;2023-02-14T08:14:44;101993.56;;;17.31;
46015;BME280;36844;51.898;-0.874;2023-02-14T08:17:09;102000.50;;;17.32;
46015;BME280;36844;51.898;-0.874;2023-02-14T08:19:37;102000.91;;;17.34;
46015;BME280;36844;51.898;-0.874;2023-02-14T08:22:03;101994.75;;;17.34;
46015;BME280;36844;51.898;-0.874;2023-02-14T08:24:28;101989.81;;;17.36;
46015;BME280;36844;51.898;-0.874;2023-02-14T08:26:53;101996.41;;;17.38;
46015;BME280;36844;51.898;-0.874;2023-02-14T08:29:18;101997.19;;;17.39;
46015;BME280;36844;51.898;-0.874;2023-02-14T08:31:44;102000.28;;;17.41;
46015;BME280;36844;51.898;-0.874;2023-02-14T08:34:11;101999.94;;;17.42;
46015;BME280;36844;51.898;-0.874;2023-02-14T08:36:36;102007.31;;;17.45;
46015;BME280;36844;51.898;-0.874;2023-02-14T08:39:02;102006.19;;;17.46;
46015;BME280;36844;51.898;-0.874;2023-02-14T08:41:28;102007.38;;;17.49;
46015;BME280;36844;51.898;-0.874;2023-02-14T08:43:53;101998.19;;;17.50;
46015;BME280;36844;51.898;-0.874;2023-02-14T08:46:18;101995.50;;;17.50;
46015;BME280;36844;51.898;-0.874;2023-02-14T08:48:43;101992.81;;;17.50;
46015;BME280;36844;51.898;-0.874;2023-02-14T08:51:10;101993.59;;;17.50;
46015;BME280;36844;51.898;-0.874;2023-02-14T08:53:36;101997.06;;;17.51;
46015;BME280;36844;51.898;-0.874;2023-02-14T08:56:02;101999.78;;;17.51;
46015;BME280;36844;51.898;-0.874;2023-02-14T08:58:27;101996.28;;;17.50;
46015;BME280;36844;51.898;-0.874;2023-02-14T09:00:53;101995.50;;;17.50;
46015;BME280;36844;51.898;-0.874;2023-02-14T09:03:19;102001.69;;;17.50;
46015;BME280;36844;51.898;-0.874;2023-02-14T09:05:44;101985.50;;;17.50;
46015;BME280;36844;51.898;-0.874;2023-02-14T09:08:10;101992.81;;;17.50;
46015;BME280;36844;51.898;-0.874;2023-02-14T09:10:35;101990.44;;;17.48;
46015;BME280;36844;51.898;-0.874;2023-02-14T09:13:00;101989.66;;;17.48;
46015;BME280;36844;51.898;-0.874;2023-02-14T09:15:25;101997.00;;;17.47;
46015;BME280;36844;51.898;-0.874;2023-02-14T09:17:51;101993.84;;;17.45;
46015;BME280;36844;51.898;-0.874;2023-02-14T09:20:16;101993.84;;;17.45;
46015;BME280;36844;51.898;-0.874;2023-02-14T09:22:41;102001.84;;;17.42;
46015;BME280;36844;51.898;-0.874;2023-02-14T09:25:07;101996.47;;;17.42;
46015;BME280;36844;51.898;-0.874;2023-02-14T09:27:32;101997.25;;;17.42;
46015;BME280;36844;51.898;-0.874;2023-02-14T09:29:58;101987.97;;;17.40;
46015;BME280;36844;51.898;-0.874;2023-02-14T09:32:23;101986.41;;;17.39;
46015;BME280;36844;51.898;-0.874;2023-02-14T09:34:50;101991.00;;;17.38;
46015;BME280;36844;51.898;-0.874;2023-02-14T09:37:15;101986.75;;;17.37;
46015;BME280;36844;51.898;-0.874;2023-02-14T09:39:59;101984.44;;;17.36;
46015;BME280;36844;51.898;-0.874;2023-02-14T09:45:07;101983.19;;;17.33;
46015;BME280;36844;51.898;-0.874;2023-02-14T09:49:59;101983.09;;;17.30;
46015;BME280;36844;51.898;-0.874;2023-02-14T09:52:26;101983.09;;;17.30;
46015;BME280;36844;51.898;-0.874;2023-02-14T09:54:54;101984.22;;;17.29;
46015;BME280;36844;51.898;-0.874;2023-02-14T09:59:58;101986.53;;;17.27;
46015;BME280;36844;51.898;-0.874;2023-02-14T10:10:04;101995.63;;;17.22;
46015;BME280;36844;51.898;-0.874;2023-02-14T10:12:33;101998.34;;;17.22;
46015;BME280;36844;51.898;-0.874;2023-02-14T10:15:01;102000.63;;;17.20;
46015;BME280;36844;51.898;-0.874;2023-02-14T10:17:35;101996.34;;;17.19;
46015;BME280;36844;51.898;-0.874;2023-02-14T10:20:03;102002.06;;;17.18;
46015;BME280;36844;51.898;-0.874;2023-02-14T10:22:38;101995.16;;;17.17;
46015;BME280;36844;51.898;-0.874;2023-02-14T10:25:27;101995.50;;;17.15;
46015;BME280;36844;51.898;-0.874;2023-02-14T10:27:52;101995.84;;;17.14;
46015;BME280;36844;51.898;-0.874;2023-02-14T10:30:20;101998.91;;;17.12;
46015;BME280;36844;51.898;-0.874;2023-02-14T10:32:50;101993.84;;;17.11;
46015;BME280;36844;51.898;-0.874;2023-02-14T10:48:17;101977.38;;;16.97;
46015;BME280;36844;51.898;-0.874;2023-02-14T10:50:55;101980.84;;;16.97;
46015;BME280;36844;51.898;-0.874;2023-02-14T10:53:35;101977.69;;;16.95;
46015;BME280;36844;51.898;-0.874;2023-02-14T10:56:22;101976.94;;;16.95;
46015;BME280;36844;51.898;-0.874;2023-02-14T10:58:50;101972.69;;;16.94;
46015;BME280;36844;51.898;-0.874;2023-02-14T11:01:18;101963.03;;;16.93;
46015;BME280;36844;51.898;-0.874;2023-02-14T11:03:50;101970.34;;;16.92;
46015;BME280;36844;51.898;-0.874;2023-02-14T11:06:16;101979.19;;;16.93;
46015;BME280;36844;51.898;-0.874;2023-02-14T11:08:41;101983.78;;;16.92;
46015;BME280;36844;51.898;-0.874;2023-02-14T11:13:36;101977.63;;;16.92;
46015;BME280;36844;51.898;-0.874;2023-02-14T11:16:03;101975.72;;;16.92;
46015;BME280;36844;51.898;-0.874;2023-02-14T11:18:29;101973.03;;;16.92;
46015;BME280;36844;51.898;-0.874;2023-02-14T11:23:26;101979.56;;;16.91;
46015;BME280;36844;51.898;-0.874;2023-02-14T11:25:51;101973.38;;;16.91;
46015;BME280;36844;51.898;-0.874;2023-02-14T11:28:19;101977.97;;;16.90;
46015;BME280;36844;51.898;-0.874;2023-02-14T11:30:45;101971.84;;;16.90;
46015;BME280;36844;51.898;-0.874;2023-02-14T11:33:12;101970.69;;;16.91;
46015;BME280;36844;51.898;-0.874;2023-02-14T11:35:37;101959.91;;;16.91;
46015;BME280;36844;51.898;-0.874;2023-02-14T11:38:04;101961.06;;;16.90;
46015;BME280;36844;51.898;-0.874;2023-02-14T11:40:36;101959.13;;;16.90;
46015;BME280;36844;51.898;-0.874;2023-02-14T11:45:40;101956.78;;;16.89;
46015;BME280;36844;51.898;-0.874;2023-02-14T11:48:19;101952.22;;;16.89;
46015;BME280;36844;51.898;-0.874;2023-02-14T11:51:18;101946.03;;;16.89;
46015;BME280;36844;51.898;-0.874;2023-02-14T11:56:11;101940.22;;;16.87;
46015;BME280;36844;51.898;-0.874;2023-02-14T11:58:38;101932.50;;;16.85;
46015;BME280;36844;51.898;-0.874;2023-02-14T12:01:04;101935.53;;;16.83;
46015;BME280;36844;51.898;-0.874;2023-02-14T12:03:32;101928.59;;;16.83;
46015;BME280;36844;51.898;-0.874;2023-02-14T12:06:01;101934.31;;;16.81;
46015;BME280;36844;51.898;-0.874;2023-02-14T12:08:28;101924.34;;;16.82;
46015;BME280;36844;51.898;-0.874;2023-02-14T12:13:28;101918.50;;;16.79;
46015;BME280;36844;51.898;-0.874;2023-02-14T12:15:54;101920.44;;;16.79;
46015;BME280;36844;51.898;-0.874;2023-02-14T12:26:30;101901.97;;;16.77;
46015;BME280;36844;51.898;-0.874;2023-02-14T12:31:41;101898.91;;;16.79;
46015;BME280;36844;51.898;-0.874;2023-02-14T12:34:08;101883.91;;;16.78;
46015;BME280;36844;51.898;-0.874;2023-02-14T12:39:08;101872.69;;;16.76;
46015;BME280;36844;51.898;-0.874;2023-02-14T12:41:43;101871.56;;;16.77;
46015;BME280;36844;51.898;-0.874;2023-02-14T12:46:43;101866.63;;;16.79;
46015;BME280;36844;51.898;-0.874;2023-02-14T12:54:08;101860.03;;;16.76;
46015;BME280;36844;51.898;-0.874;2023-02-14T12:59:14;101860.38;;;16.75;
46015;BME280;36844;51.898;-0.874;2023-02-14T13:07:07;101863.44;;;16.73;
46015;BME280;36844;51.898;-0.874;2023-02-14T13:17:14;101834.25;;;16.75;
46015;BME280;36844;51.898;-0.874;2023-02-14T13:22:05;101828.88;;;16.75;
46015;BME280;36844;51.898;-0.874;2023-02-14T13:24:38;101825.84;;;16.77;
46015;BME280;36844;51.898;-0.874;2023-02-14T13:27:04;101838.94;;;16.78;
46015;BME280;36844;51.898;-0.874;2023-02-14T13:29:36;101841.63;;;16.78;
46015;BME280;36844;51.898;-0.874;2023-02-14T13:32:05;101836.22;;;16.78;
46015;BME280;36844;51.898;-0.874;2023-02-14T13:34:40;101830.84;;;16.78;
46015;BME280;36844;51.898;-0.874;2023-02-14T13:37:08;101830.50;;;16.80;
46015;BME280;36844;51.898;-0.874;2023-02-14T13:39:36;101829.38;;;16.81;
46015;BME280;36844;51.898;-0.874;2023-02-14T13:42:03;101833.66;;;16.82;
46015;BME280;36844;51.898;-0.874;2023-02-14T13:47:03;101819.03;;;16.83;
46015;BME280;36844;51.898;-0.874;2023-02-14T13:49:29;101824.44;;;16.83;
46015;BME280;36844;51.898;-0.874;2023-02-14T13:52:03;101809.81;;;16.84;
46015;BME280;36844;51.898;-0.874;2023-02-14T13:54:45;101806.81;;;16.86;
46015;BME280;36844;51.898;-0.874;2023-02-14T14:08:15;101792.63;;;16.89;
46015;BME280;36844;51.898;-0.874;2023-02-14T14:10:41;101791.50;;;16.90;
46015;BME280;36844;51.898;-0.874;2023-02-14T14:13:06;101788.47;;;16.91;
46015;BME280;36844;51.898;-0.874;2023-02-14T14:15:31;101791.59;;;16.93;
46015;BME280;36844;51.898;-0.874;2023-02-14T14:18:30;101788.09;;;16.93;
46015;BME280;36844;51.898;-0.874;2023-02-14T14:20:48;101782.38;;;16.94;
46015;BME280;36844;51.898;-0.874;2023-02-14T14:23:47;101787.75;;;16.94;
46015;BME280;36844;51.898;-0.874;2023-02-14T14:28:50;101776.63;;;16.96;
46015;BME280;36844;51.898;-0.874;2023-02-14T14:31:18;101780.09;;;16.96;
46015;BME280;36844;51.898;-0.874;2023-02-14T14:33:45;101769.34;;;16.96;
46015;BME280;36844;51.898;-0.874;2023-02-14T14:36:10;101766.66;;;16.96;
46015;BME280;36844;51.898;-0.874;2023-02-14T14:38:48;101771.66;;;16.98;
46015;BME280;36844;51.898;-0.874;2023-02-14T14:41:14;101769.75;;;16.98;
46015;BME280;36844;51.898;-0.874;2023-02-14T14:43:39;101769.75;;;16.98;
46015;BME280;36844;51.898;-0.874;2023-02-14T14:46:07;101772.44;;;16.98;
46015;BME280;36844;51.898;-0.874;2023-02-14T14:50:58;101765.13;;;16.99;
46015;BME280;36844;51.898;-0.874;2023-02-14T14:53:31;101757.84;;;16.99;
46015;BME280;36844;51.898;-0.874;2023-02-14T14:55:59;101768.63;;;16.99;
46015;BME280;36844;51.898;-0.874;2023-02-14T14:58:33;101758.22;;;16.98;
46015;BME280;36844;51.898;-0.874;2023-02-14T15:00:58;101758.22;;;16.98;
46015;BME280;36844;51.898;-0.874;2023-02-14T15:03:24;101751.28;;;16.97;
46015;BME280;36844;51.898;-0.874;2023-02-14T15:05:50;101752.06;;;16.97;
46015;BME280;36844;51.898;-0.874;2023-02-14T15:10:41;101740.84;;;16.95;
46015;BME280;36844;51.898;-0.874;2023-02-14T15:13:07;101751.63;;;16.95;
46015;BME280;36844;51.898;-0.874;2023-02-14T15:15:54;101750.06;;;16.94;
46015;BME280;36844;51.898;-0.874;2023-02-14T15:18:19;101744.69;;;16.94;
46015;BME280;36844;51.898;-0.874;2023-02-14T15:20:48;101746.94;;;16.92;
46015;BME280;36844;51.898;-0.874;2023-02-14T15:23:18;101745.03;;;16.93;
46015;BME280;36844;51.898;-0.874;2023-02-14T15:25:45;101745.41;;;16.91;
46015;BME280;36844;51.898;-0.874;2023-02-14T15:28:13;101748.09;;;16.91;
46015;BME280;36844;51.898;-0.874;2023-02-14T15:30:41;101742.72;;;16.91;
46015;BME280;36844;51.898;-0.874;2023-02-14T15:33:08;101738.44;;;16.90;
46015;BME280;36844;51.898;-0.874;2023-02-14T15:35:35;101742.28;;;16.89;
46015;BME280;36844;51.898;-0.874;2023-02-14T15:38:03;101742.28;;;16.89;
46015;BME280;36844;51.898;-0.874;2023-02-14T15:40:30;101735.34;;;16.88;
46015;BME280;36844;51.898;-0.874;2023-02-14T15:42:57;101737.25;;;16.88;
46015;BME280;36844;51.898;-0.874;2023-02-14T15:47:54;101734.91;;;16.86;
46015;BME280;36844;51.898;-0.874;2023-02-14T15:50:21;101730.66;;;16.85;
46015;BME280;36844;51.898;-0.874;2023-02-14T15:52:49;101721.81;;;16.85;
46015;BME280;36844;51.898;-0.874;2023-02-14T15:55:16;101725.63;;;16.83;
46015;BME280;36844;51.898;-0.874;2023-02-14T15:57:43;101722.94;;;16.83;
46015;BME280;36844;51.898;-0.874;2023-02-14T16:00:16;101727.91;;;16.82;